< < Back
Terminal Aerodrome Forecast


Current Version              Previous Versions:   1  2  3  4  5  6  7  8  9  

Terminal Aerodrome Forecast

694
FTUS42 KJAX 241136
TAFSSI
TAF
KSSI 241136Z 2412/2512 06008KT P6SM SCT025 BKN250
     FM241500 06012G22KT P6SM SCT030 SCT250
     FM250000 07010KT P6SM FEW250=

Latest METAR

513
SAUS70 KWBC 241600 RRF
MTRSSI
METAR KSSI 241553Z AUTO 07012G17KT 10SM CLR 31/21 A3023 RMK AO2 SLP236
T03110211


USA.gov is the U.S. government's official web portal to all federal, state and local government web resources and services.